Search METAR Data

METAR Data for ENSG:

ENSG 241450Z VRB02KT 9999 BKN036 04/M06 Q1005 RMK WIND 3806FT 10004KT